sensor_id;sensor_type;location;lat;lon;timestamp;temperature;humidity
1091;DHT22;534;48.704;9.122;2022-12-29T04:00:33;11.40;71.10
1091;DHT22;534;48.704;9.122;2022-12-29T04:03:00;11.40;70.90
1091;DHT22;534;48.704;9.122;2022-12-29T04:05:27;11.40;71.10
1091;DHT22;534;48.704;9.122;2022-12-29T04:07:53;11.40;71.00
1091;DHT22;534;48.704;9.122;2022-12-29T04:10:20;11.50;70.80
1091;DHT22;534;48.704;9.122;2022-12-29T04:12:47;11.50;70.90
1091;DHT22;534;48.704;9.122;2022-12-29T04:15:14;11.40;71.50
1091;DHT22;534;48.704;9.122;2022-12-29T04:17:42;11.30;72.10
1091;DHT22;534;48.704;9.122;2022-12-29T04:20:09;11.30;72.20
1091;DHT22;534;48.704;9.122;2022-12-29T04:22:58;11.20;72.30
1091;DHT22;534;48.704;9.122;2022-12-29T04:25:25;11.10;72.80
1091;DHT22;534;48.704;9.122;2022-12-29T04:27:52;11.20;73.00
1091;DHT22;534;48.704;9.122;2022-12-29T04:30:18;11.30;72.90
1091;DHT22;534;48.704;9.122;2022-12-29T04:32:46;11.30;73.00
1091;DHT22;534;48.704;9.122;2022-12-29T04:35:13;11.30;73.20
1091;DHT22;534;48.704;9.122;2022-12-29T04:37:40;11.30;73.60
1091;DHT22;534;48.704;9.122;2022-12-29T04:40:08;11.30;73.30
1091;DHT22;534;48.704;9.122;2022-12-29T04:42:35;11.30;73.60
1091;DHT22;534;48.704;9.122;2022-12-29T04:45:01;11.30;73.50
1091;DHT22;534;48.704;9.122;2022-12-29T04:47:28;11.40;73.60
1091;DHT22;534;48.704;9.122;2022-12-29T04:49:56;11.40;73.30
1091;DHT22;534;48.704;9.122;2022-12-29T04:52:23;11.50;73.50
1091;DHT22;534;48.704;9.122;2022-12-29T04:54:49;11.50;73.50
1091;DHT22;534;48.704;9.122;2022-12-29T04:57:16;11.50;73.40
1091;DHT22;534;48.704;9.122;2022-12-29T04:59:43;11.50;73.40
1091;DHT22;534;48.704;9.122;2022-12-29T05:02:09;11.50;73.70
1091;DHT22;534;48.704;9.122;2022-12-29T05:04:37;11.50;73.50
1091;DHT22;534;48.704;9.122;2022-12-29T05:07:05;11.50;73.50
1091;DHT22;534;48.704;9.122;2022-12-29T05:09:31;11.40;73.50
1091;DHT22;534;48.704;9.122;2022-12-29T05:11:58;11.50;73.90
1091;DHT22;534;48.704;9.122;2022-12-29T05:14:25;11.40;73.90
1091;DHT22;534;48.704;9.122;2022-12-29T05:16:52;11.50;73.80
1091;DHT22;534;48.704;9.122;2022-12-29T05:19:18;11.40;73.80
1091;DHT22;534;48.704;9.122;2022-12-29T05:21:45;11.40;74.00
1091;DHT22;534;48.704;9.122;2022-12-29T05:24:13;11.30;74.20
1091;DHT22;534;48.704;9.122;2022-12-29T05:26:40;11.30;74.40
1091;DHT22;534;48.704;9.122;2022-12-29T05:29:07;11.20;74.40
1091;DHT22;534;48.704;9.122;2022-12-29T05:31:34;11.20;74.70
1091;DHT22;534;48.704;9.122;2022-12-29T05:34:01;11.30;74.40
1091;DHT22;534;48.704;9.122;2022-12-29T05:36:28;11.20;74.80
1091;DHT22;534;48.704;9.122;2022-12-29T05:38:54;11.10;75.10
1091;DHT22;534;48.704;9.122;2022-12-29T05:41:22;11.20;74.70
1091;DHT22;534;48.704;9.122;2022-12-29T05:43:49;11.20;74.30
1091;DHT22;534;48.704;9.122;2022-12-29T05:46:16;11.20;74.60
1091;DHT22;534;48.704;9.122;2022-12-29T05:48:42;11.30;74.00
1091;DHT22;534;48.704;9.122;2022-12-29T05:51:09;11.30;74.10
1091;DHT22;534;48.704;9.122;2022-12-29T05:53:36;11.30;74.10
1091;DHT22;534;48.704;9.122;2022-12-29T05:56:02;11.30;74.30
1091;DHT22;534;48.704;9.122;2022-12-29T05:58:30;11.30;74.10
1091;DHT22;534;48.704;9.122;2022-12-29T06:00:57;11.30;74.20
1091;DHT22;534;48.704;9.122;2022-12-29T06:03:24;11.30;74.20
1091;DHT22;534;48.704;9.122;2022-12-29T06:05:50;11.40;74.20
1091;DHT22;534;48.704;9.122;2022-12-29T06:08:17;11.30;74.10
1091;DHT22;534;48.704;9.122;2022-12-29T06:10:44;11.40;73.70
1091;DHT22;534;48.704;9.122;2022-12-29T06:13:10;11.30;73.70
1091;DHT22;534;48.704;9.122;2022-12-29T06:15:38;11.40;73.60
1091;DHT22;534;48.704;9.122;2022-12-29T06:18:05;11.40;73.80
1091;DHT22;534;48.704;9.122;2022-12-29T06:20:32;11.40;73.40
1091;DHT22;534;48.704;9.122;2022-12-29T06:22:58;11.40;73.20
1091;DHT22;534;48.704;9.122;2022-12-29T06:25:25;11.40;73.10
1091;DHT22;534;48.704;9.122;2022-12-29T06:27:52;11.40;73.40
1091;DHT22;534;48.704;9.122;2022-12-29T06:30:19;11.50;73.60
1091;DHT22;534;48.704;9.122;2022-12-29T06:32:47;11.50;73.20
1091;DHT22;534;48.704;9.122;2022-12-29T06:35:14;11.50;72.70
1091;DHT22;534;48.704;9.122;2022-12-29T06:37:40;11.40;72.60
1091;DHT22;534;48.704;9.122;2022-12-29T06:40:08;11.40;72.70
1091;DHT22;534;48.704;9.122;2022-12-29T06:42:35;11.60;72.60
1091;DHT22;534;48.704;9.122;2022-12-29T06:45:02;11.50;72.20
1091;DHT22;534;48.704;9.122;2022-12-29T06:47:29;11.40;72.90
1091;DHT22;534;48.704;9.122;2022-12-29T06:49:57;11.50;72.20
1091;DHT22;534;48.704;9.122;2022-12-29T06:52:23;11.50;71.80
1091;DHT22;534;48.704;9.122;2022-12-29T06:54:50;11.50;71.80
1091;DHT22;534;48.704;9.122;2022-12-29T06:57:17;11.40;71.80
1091;DHT22;534;48.704;9.122;2022-12-29T06:59:43;11.40;72.00
1091;DHT22;534;48.704;9.122;2022-12-29T07:02:10;11.40;71.80
1091;DHT22;534;48.704;9.122;2022-12-29T07:04:38;11.30;71.70
1091;DHT22;534;48.704;9.122;2022-12-29T07:07:06;11.30;71.80
1091;DHT22;534;48.704;9.122;2022-12-29T07:09:33;11.30;72.10
1091;DHT22;534;48.704;9.122;2022-12-29T07:11:59;11.30;72.40
1091;DHT22;534;48.704;9.122;2022-12-29T07:14:26;11.30;72.20
1091;DHT22;534;48.704;9.122;2022-12-29T07:16:53;11.30;72.30
1091;DHT22;534;48.704;9.122;2022-12-29T07:19:20;11.30;72.00
1091;DHT22;534;48.704;9.122;2022-12-29T07:21:46;11.30;71.90
1091;DHT22;534;48.704;9.122;2022-12-29T07:24:14;11.30;72.40
1091;DHT22;534;48.704;9.122;2022-12-29T07:26:41;11.20;72.40
1091;DHT22;534;48.704;9.122;2022-12-29T07:29:08;11.30;72.60
1091;DHT22;534;48.704;9.122;2022-12-29T07:31:34;11.30;72.20
1091;DHT22;534;48.704;9.122;2022-12-29T07:34:01;11.30;72.40
1091;DHT22;534;48.704;9.122;2022-12-29T07:36:28;11.30;72.10
1091;DHT22;534;48.704;9.122;2022-12-29T07:38:54;11.40;72.20
1091;DHT22;534;48.704;9.122;2022-12-29T07:41:22;11.40;72.10
1091;DHT22;534;48.704;9.122;2022-12-29T07:43:49;11.40;71.80
1091;DHT22;534;48.704;9.122;2022-12-29T07:46:16;11.30;72.20
1091;DHT22;534;48.704;9.122;2022-12-29T07:48:42;11.30;72.30
1091;DHT22;534;48.704;9.122;2022-12-29T07:51:09;11.40;72.30
1091;DHT22;534;48.704;9.122;2022-12-29T07:53:36;11.30;72.30
1091;DHT22;534;48.704;9.122;2022-12-29T07:56:03;11.30;72.80
1091;DHT22;534;48.704;9.122;2022-12-29T07:58:32;11.30;72.40
1091;DHT22;534;48.704;9.122;2022-12-29T08:00:58;11.30;72.50
1091;DHT22;534;48.704;9.122;2022-12-29T08:03:25;11.40;72.40
1091;DHT22;534;48.704;9.122;2022-12-29T08:05:52;11.40;72.20
1091;DHT22;534;48.704;9.122;2022-12-29T08:08:20;11.50;72.00
1091;DHT22;534;48.704;9.122;2022-12-29T08:10:46;11.50;72.00
1091;DHT22;534;48.704;9.122;2022-12-29T08:13:13;11.40;72.40
1091;DHT22;534;48.704;9.122;2022-12-29T08:15:50;11.30;72.90
1091;DHT22;534;48.704;9.122;2022-12-29T08:18:19;11.40;72.60
1091;DHT22;534;48.704;9.122;2022-12-29T08:20:46;11.40;72.70
1091;DHT22;534;48.704;9.122;2022-12-29T08:23:13;11.40;72.50
1091;DHT22;534;48.704;9.122;2022-12-29T08:25:39;11.40;73.00
1091;DHT22;534;48.704;9.122;2022-12-29T08:28:06;11.50;72.90
1091;DHT22;534;48.704;9.122;2022-12-29T08:30:34;11.50;72.40
1091;DHT22;534;48.704;9.122;2022-12-29T08:33:03;11.50;72.40
1091;DHT22;534;48.704;9.122;2022-12-29T08:35:30;11.60;72.70
1091;DHT22;534;48.704;9.122;2022-12-29T08:37:56;11.60;72.40
1091;DHT22;534;48.704;9.122;2022-12-29T08:40:23;11.70;72.80
1091;DHT22;534;48.704;9.122;2022-12-29T08:42:49;11.70;71.90
1091;DHT22;534;48.704;9.122;2022-12-29T08:45:16;11.70;72.20
1091;DHT22;534;48.704;9.122;2022-12-29T08:47:43;11.70;72.00
1091;DHT22;534;48.704;9.122;2022-12-29T08:50:11;11.80;72.00
1091;DHT22;534;48.704;9.122;2022-12-29T08:52:38;11.70;72.20
1091;DHT22;534;48.704;9.122;2022-12-29T08:55:05;11.70;71.70
1091;DHT22;534;48.704;9.122;2022-12-29T08:57:31;11.70;71.90
1091;DHT22;534;48.704;9.122;2022-12-29T08:59:58;11.70;71.90
1091;DHT22;534;48.704;9.122;2022-12-29T09:02:25;11.80;71.80
1091;DHT22;534;48.704;9.122;2022-12-29T09:04:51;11.80;71.90
1091;DHT22;534;48.704;9.122;2022-12-29T09:07:19;11.80;71.50
1091;DHT22;534;48.704;9.122;2022-12-29T09:09:46;11.80;71.90
1091;DHT22;534;48.704;9.122;2022-12-29T09:12:13;11.80;71.40
1091;DHT22;534;48.704;9.122;2022-12-29T09:14:39;11.80;71.90
1091;DHT22;534;48.704;9.122;2022-12-29T09:17:08;11.80;71.60
1091;DHT22;534;48.704;9.122;2022-12-29T09:19:52;11.80;71.90
1091;DHT22;534;48.704;9.122;2022-12-29T09:22:20;11.80;72.10
1091;DHT22;534;48.704;9.122;2022-12-29T09:24:47;11.90;71.90
1091;DHT22;534;48.704;9.122;2022-12-29T09:27:13;12.00;75.80
1091;DHT22;534;48.704;9.122;2022-12-29T09:29:40;12.20;73.00
1091;DHT22;534;48.704;9.122;2022-12-29T09:32:07;12.20;71.60
1091;DHT22;534;48.704;9.122;2022-12-29T09:34:33;12.30;70.90
1091;DHT22;534;48.704;9.122;2022-12-29T09:37:00;12.30;70.80
1091;DHT22;534;48.704;9.122;2022-12-29T09:39:28;12.30;71.60
1091;DHT22;534;48.704;9.122;2022-12-29T09:42:01;12.30;70.90
1091;DHT22;534;48.704;9.122;2022-12-29T09:44:42;12.30;72.50
1091;DHT22;534;48.704;9.122;2022-12-29T09:47:13;12.50;70.80
1091;DHT22;534;48.704;9.122;2022-12-29T09:49:44;12.50;69.90
1091;DHT22;534;48.704;9.122;2022-12-29T09:52:15;12.50;70.50
1091;DHT22;534;48.704;9.122;2022-12-29T09:54:52;12.40;70.70
1091;DHT22;534;48.704;9.122;2022-12-29T09:57:23;12.40;70.60
1091;DHT22;534;48.704;9.122;2022-12-29T09:59:54;12.40;71.30
1091;DHT22;534;48.704;9.122;2022-12-29T10:02:32;12.30;71.30
1091;DHT22;534;48.704;9.122;2022-12-29T10:05:00;12.40;71.20
1091;DHT22;534;48.704;9.122;2022-12-29T10:07:35;12.50;70.60
1091;DHT22;534;48.704;9.122;2022-12-29T10:10:14;12.50;71.20
1091;DHT22;534;48.704;9.122;2022-12-29T10:12:53;12.50;71.20
1091;DHT22;534;48.704;9.122;2022-12-29T10:15:33;12.60;70.80
1091;DHT22;534;48.704;9.122;2022-12-29T10:18:17;12.50;71.30
1091;DHT22;534;48.704;9.122;2022-12-29T10:20:50;12.40;71.30
1091;DHT22;534;48.704;9.122;2022-12-29T10:23:26;12.40;72.00
1091;DHT22;534;48.704;9.122;2022-12-29T10:25:57;12.40;72.10
1091;DHT22;534;48.704;9.122;2022-12-29T10:28:28;12.40;72.30
1091;DHT22;534;48.704;9.122;2022-12-29T10:30:56;12.50;72.00
1091;DHT22;534;48.704;9.122;2022-12-29T10:33:32;12.50;71.90
1091;DHT22;534;48.704;9.122;2022-12-29T10:36:04;12.70;72.30
1091;DHT22;534;48.704;9.122;2022-12-29T10:38:42;12.80;71.50
1091;DHT22;534;48.704;9.122;2022-12-29T10:41:15;12.80;71.60
1091;DHT22;534;48.704;9.122;2022-12-29T10:43:46;12.70;71.80
1091;DHT22;534;48.704;9.122;2022-12-29T10:46:15;12.90;71.80
1091;DHT22;534;48.704;9.122;2022-12-29T10:48:42;13.20;71.00
1091;DHT22;534;48.704;9.122;2022-12-29T10:51:21;13.40;71.00
1091;DHT22;534;48.704;9.122;2022-12-29T10:53:51;13.50;70.10
1091;DHT22;534;48.704;9.122;2022-12-29T10:56:27;13.50;69.80
1091;DHT22;534;48.704;9.122;2022-12-29T10:58:57;13.40;69.70
1091;DHT22;534;48.704;9.122;2022-12-29T11:01:31;13.30;69.90
1091;DHT22;534;48.704;9.122;2022-12-29T11:04:03;13.10;71.00
1091;DHT22;534;48.704;9.122;2022-12-29T11:06:32;13.10;70.50
1091;DHT22;534;48.704;9.122;2022-12-29T11:09:02;13.10;70.00
1091;DHT22;534;48.704;9.122;2022-12-29T11:11:36;13.10;70.60
1091;DHT22;534;48.704;9.122;2022-12-29T11:14:12;13.10;70.50
1091;DHT22;534;48.704;9.122;2022-12-29T11:16:39;13.00;70.20
1091;DHT22;534;48.704;9.122;2022-12-29T11:19:20;13.10;70.30
1091;DHT22;534;48.704;9.122;2022-12-29T11:21:47;13.10;70.00
1091;DHT22;534;48.704;9.122;2022-12-29T11:24:20;13.30;70.30
1091;DHT22;534;48.704;9.122;2022-12-29T11:26:49;13.30;69.90
1091;DHT22;534;48.704;9.122;2022-12-29T11:29:24;13.20;70.00
1091;DHT22;534;48.704;9.122;2022-12-29T11:31:53;13.20;70.10
1091;DHT22;534;48.704;9.122;2022-12-29T11:34:23;13.20;71.00
1091;DHT22;534;48.704;9.122;2022-12-29T11:36:52;13.20;72.20
1091;DHT22;534;48.704;9.122;2022-12-29T11:39:29;13.20;72.70
1091;DHT22;534;48.704;9.122;2022-12-29T11:41:59;13.20;72.90
1091;DHT22;534;48.704;9.122;2022-12-29T11:44:31;13.30;73.40
1091;DHT22;534;48.704;9.122;2022-12-29T11:47:01;13.40;72.90
1091;DHT22;534;48.704;9.122;2022-12-29T11:49:28;13.40;72.40
1091;DHT22;534;48.704;9.122;2022-12-29T11:51:55;13.40;72.30
1091;DHT22;534;48.704;9.122;2022-12-29T11:54:25;13.30;72.30
1091;DHT22;534;48.704;9.122;2022-12-29T11:56:52;13.20;72.70
1091;DHT22;534;48.704;9.122;2022-12-29T11:59:41;13.30;72.60
1091;DHT22;534;48.704;9.122;2022-12-29T12:02:35;13.20;72.30
1091;DHT22;534;48.704;9.122;2022-12-29T12:05:12;13.00;72.80
1091;DHT22;534;48.704;9.122;2022-12-29T12:07:41;13.10;73.10
1091;DHT22;534;48.704;9.122;2022-12-29T12:10:17;13.10;73.30
1091;DHT22;534;48.704;9.122;2022-12-29T12:12:47;13.10;73.30
1091;DHT22;534;48.704;9.122;2022-12-29T12:15:20;13.10;73.50
1091;DHT22;534;48.704;9.122;2022-12-29T12:17:53;13.00;73.70
1091;DHT22;534;48.704;9.122;2022-12-29T12:20:22;12.90;74.30
1091;DHT22;534;48.704;9.122;2022-12-29T12:22:59;12.80;74.80
1091;DHT22;534;48.704;9.122;2022-12-29T12:25:33;12.80;75.00
1091;DHT22;534;48.704;9.122;2022-12-29T12:28:05;12.80;75.20
1091;DHT22;534;48.704;9.122;2022-12-29T12:30:39;12.80;75.60
1091;DHT22;534;48.704;9.122;2022-12-29T12:33:16;12.70;76.00
1091;DHT22;534;48.704;9.122;2022-12-29T12:35:53;12.80;76.90
1091;DHT22;534;48.704;9.122;2022-12-29T12:38:30;12.80;77.90
1091;DHT22;534;48.704;9.122;2022-12-29T12:41:06;12.60;79.50
1091;DHT22;534;48.704;9.122;2022-12-29T12:43:39;12.40;80.40
1091;DHT22;534;48.704;9.122;2022-12-29T12:52:05;12.10;81.50
1091;DHT22;534;48.704;9.122;2022-12-29T12:54:54;12.20;81.20
1091;DHT22;534;48.704;9.122;2022-12-29T12:57:36;12.30;81.50
1091;DHT22;534;48.704;9.122;2022-12-29T13:00:11;12.70;80.40
1091;DHT22;534;48.704;9.122;2022-12-29T13:02:55;12.80;79.60
1091;DHT22;534;48.704;9.122;2022-12-29T13:05:33;13.40;77.90
1091;DHT22;534;48.704;9.122;2022-12-29T13:11:00;17.10;68.90
1091;DHT22;534;48.704;9.122;2022-12-29T13:13:58;18.50;62.60
1091;DHT22;534;48.704;9.122;2022-12-29T13:16:34;17.70;63.60
1091;DHT22;534;48.704;9.122;2022-12-29T13:19:10;17.00;65.10
1091;DHT22;534;48.704;9.122;2022-12-29T13:21:47;17.40;65.10
1091;DHT22;534;48.704;9.122;2022-12-29T13:24:25;18.00;62.70
1091;DHT22;534;48.704;9.122;2022-12-29T13:26:59;18.40;61.80
1091;DHT22;534;48.704;9.122;2022-12-29T13:29:33;17.50;63.00
1091;DHT22;534;48.704;9.122;2022-12-29T13:32:14;16.70;65.10
1091;DHT22;534;48.704;9.122;2022-12-29T13:34:56;15.80;67.80
1091;DHT22;534;48.704;9.122;2022-12-29T13:37:27;15.10;70.10
1091;DHT22;534;48.704;9.122;2022-12-29T13:39:59;14.60;72.10
1091;DHT22;534;48.704;9.122;2022-12-29T13:42:27;14.30;72.80
1091;DHT22;534;48.704;9.122;2022-12-29T13:44:58;13.90;74.50
1091;DHT22;534;48.704;9.122;2022-12-29T13:47:29;13.70;75.30
1091;DHT22;534;48.704;9.122;2022-12-29T13:50:02;13.30;76.30
1091;DHT22;534;48.704;9.122;2022-12-29T13:52:35;13.30;76.60
1091;DHT22;534;48.704;9.122;2022-12-29T13:55:20;13.20;76.90
1091;DHT22;534;48.704;9.122;2022-12-29T13:57:53;13.20;77.30
1091;DHT22;534;48.704;9.122;2022-12-29T14:00:23;13.10;77.70
1091;DHT22;534;48.704;9.122;2022-12-29T14:03:16;12.90;78.10
1091;DHT22;534;48.704;9.122;2022-12-29T14:06:04;12.90;78.30
1091;DHT22;534;48.704;9.122;2022-12-29T14:08:34;13.90;76.90
1091;DHT22;534;48.704;9.122;2022-12-29T14:11:07;15.50;71.40
1091;DHT22;534;48.704;9.122;2022-12-29T14:13:37;15.90;69.40
1091;DHT22;534;48.704;9.122;2022-12-29T14:16:06;15.60;69.60
1091;DHT22;534;48.704;9.122;2022-12-29T14:18:34;14.80;71.60
1091;DHT22;534;48.704;9.122;2022-12-29T14:21:17;14.20;73.70
1091;DHT22;534;48.704;9.122;2022-12-29T14:23:46;14.20;74.10
1091;DHT22;534;48.704;9.122;2022-12-29T14:26:15;14.00;74.50
1091;DHT22;534;48.704;9.122;2022-12-29T14:28:44;13.90;74.90
1091;DHT22;534;48.704;9.122;2022-12-29T14:31:34;14.00;75.30
1091;DHT22;534;48.704;9.122;2022-12-29T14:34:23;14.10;74.90
1091;DHT22;534;48.704;9.122;2022-12-29T14:36:55;14.00;75.20
1091;DHT22;534;48.704;9.122;2022-12-29T14:39:31;13.80;75.70
1091;DHT22;534;48.704;9.122;2022-12-29T14:41:59;13.50;76.00
1091;DHT22;534;48.704;9.122;2022-12-29T14:44:27;13.60;76.30
1091;DHT22;534;48.704;9.122;2022-12-29T14:46:58;13.40;75.70
1091;DHT22;534;48.704;9.122;2022-12-29T14:49:28;13.40;76.30
1091;DHT22;534;48.704;9.122;2022-12-29T14:52:07;13.20;75.90
1091;DHT22;534;48.704;9.122;2022-12-29T14:54:45;13.20;76.40
1091;DHT22;534;48.704;9.122;2022-12-29T14:57:25;13.20;76.10
1091;DHT22;534;48.704;9.122;2022-12-29T14:59:54;13.00;76.30
1091;DHT22;534;48.704;9.122;2022-12-29T15:02:25;12.90;76.60
1091;DHT22;534;48.704;9.122;2022-12-29T15:04:53;12.80;76.40
1091;DHT22;534;48.704;9.122;2022-12-29T15:07:27;12.60;77.20
1091;DHT22;534;48.704;9.122;2022-12-29T15:09:58;12.50;77.30
1091;DHT22;534;48.704;9.122;2022-12-29T15:12:33;12.60;77.40
1091;DHT22;534;48.704;9.122;2022-12-29T15:15:02;12.50;77.40
1091;DHT22;534;48.704;9.122;2022-12-29T15:17:42;12.50;77.60
1091;DHT22;534;48.704;9.122;2022-12-29T15:20:19;12.50;77.60
1091;DHT22;534;48.704;9.122;2022-12-29T15:22:51;12.50;77.20
1091;DHT22;534;48.704;9.122;2022-12-29T15:25:19;12.50;77.10
1091;DHT22;534;48.704;9.122;2022-12-29T15:27:49;12.50;77.10
1091;DHT22;534;48.704;9.122;2022-12-29T15:30:16;12.40;77.30
1091;DHT22;534;48.704;9.122;2022-12-29T15:32:44;12.40;77.40
1091;DHT22;534;48.704;9.122;2022-12-29T15:35:30;12.30;77.70
1091;DHT22;534;48.704;9.122;2022-12-29T15:37:59;12.30;77.50
1091;DHT22;534;48.704;9.122;2022-12-29T15:40:29;12.30;77.60
1091;DHT22;534;48.704;9.122;2022-12-29T15:43:18;12.30;77.50
1091;DHT22;534;48.704;9.122;2022-12-29T15:45:47;12.40;77.50
1091;DHT22;534;48.704;9.122;2022-12-29T15:48:18;12.40;76.90
1091;DHT22;534;48.704;9.122;2022-12-29T15:50:46;12.40;77.10
1091;DHT22;534;48.704;9.122;2022-12-29T15:53:19;12.40;77.10
1091;DHT22;534;48.704;9.122;2022-12-29T15:55:50;12.20;77.10
1091;DHT22;534;48.704;9.122;2022-12-29T15:58:21;12.30;77.30
1091;DHT22;534;48.704;9.122;2022-12-29T16:00:50;12.30;77.30
1091;DHT22;534;48.704;9.122;2022-12-29T16:03:19;12.40;76.90
1091;DHT22;534;48.704;9.122;2022-12-29T16:05:50;12.50;76.80
1091;DHT22;534;48.704;9.122;2022-12-29T16:08:29;12.60;76.60
1091;DHT22;534;48.704;9.122;2022-12-29T16:10:58;12.70;75.90
1091;DHT22;534;48.704;9.122;2022-12-29T16:13:27;12.60;76.70
1091;DHT22;534;48.704;9.122;2022-12-29T16:15:58;12.80;76.20
1091;DHT22;534;48.704;9.122;2022-12-29T16:18:28;12.80;77.10
1091;DHT22;534;48.704;9.122;2022-12-29T16:20:56;12.70;77.90
1091;DHT22;534;48.704;9.122;2022-12-29T16:23:26;12.80;78.30
1091;DHT22;534;48.704;9.122;2022-12-29T16:25:55;12.70;78.90
1091;DHT22;534;48.704;9.122;2022-12-29T16:28:26;12.70;79.50
1091;DHT22;534;48.704;9.122;2022-12-29T16:30:58;12.70;79.70
1091;DHT22;534;48.704;9.122;2022-12-29T16:33:39;12.60;79.80
1091;DHT22;534;48.704;9.122;2022-12-29T16:36:25;12.70;80.00
1091;DHT22;534;48.704;9.122;2022-12-29T16:41:47;12.70;80.00
1091;DHT22;534;48.704;9.122;2022-12-29T16:44:17;12.80;79.90
1091;DHT22;534;48.704;9.122;2022-12-29T16:47:03;12.80;79.80
1091;DHT22;534;48.704;9.122;2022-12-29T16:49:32;12.80;79.80
1091;DHT22;534;48.704;9.122;2022-12-29T16:51:59;12.80;79.60
1091;DHT22;534;48.704;9.122;2022-12-29T16:54:32;12.90;79.70
1091;DHT22;534;48.704;9.122;2022-12-29T16:57:01;12.80;79.90
1091;DHT22;534;48.704;9.122;2022-12-29T16:59:32;12.80;80.10
1091;DHT22;534;48.704;9.122;2022-12-29T17:02:04;12.70;80.10
1091;DHT22;534;48.704;9.122;2022-12-29T17:04:31;12.60;80.30
1091;DHT22;534;48.704;9.122;2022-12-29T17:06:58;12.60;80.30
1091;DHT22;534;48.704;9.122;2022-12-29T17:09:27;12.70;80.20
1091;DHT22;534;48.704;9.122;2022-12-29T17:11:56;12.60;80.40
1091;DHT22;534;48.704;9.122;2022-12-29T17:14:42;12.60;80.20
1091;DHT22;534;48.704;9.122;2022-12-29T17:17:14;12.50;80.40
1091;DHT22;534;48.704;9.122;2022-12-29T17:19:43;12.50;80.30
1091;DHT22;534;48.704;9.122;2022-12-29T17:22:16;12.50;80.60
1091;DHT22;534;48.704;9.122;2022-12-29T17:24:44;12.50;80.40
1091;DHT22;534;48.704;9.122;2022-12-29T17:27:21;12.60;80.40
1091;DHT22;534;48.704;9.122;2022-12-29T17:29:48;12.60;80.00
1091;DHT22;534;48.704;9.122;2022-12-29T17:32:16;12.60;80.10
1091;DHT22;534;48.704;9.122;2022-12-29T17:34:43;12.60;80.40
1091;DHT22;534;48.704;9.122;2022-12-29T17:40:11;12.50;80.40
1091;DHT22;534;48.704;9.122;2022-12-29T17:42:42;12.60;80.30
1091;DHT22;534;48.704;9.122;2022-12-29T17:45:13;12.60;80.30
1091;DHT22;534;48.704;9.122;2022-12-29T17:47:41;12.50;80.40
1091;DHT22;534;48.704;9.122;2022-12-29T17:50:11;12.30;81.00
1091;DHT22;534;48.704;9.122;2022-12-29T17:52:38;12.30;81.00
1091;DHT22;534;48.704;9.122;2022-12-29T17:55:12;12.20;81.50
1091;DHT22;534;48.704;9.122;2022-12-29T17:57:40;12.30;81.10
1091;DHT22;534;48.704;9.122;2022-12-29T18:00:13;12.30;81.00
1091;DHT22;534;48.704;9.122;2022-12-29T18:02:40;12.40;80.90
1091;DHT22;534;48.704;9.122;2022-12-29T18:05:14;12.40;80.80
1091;DHT22;534;48.704;9.122;2022-12-29T18:07:42;12.40;80.70
1091;DHT22;534;48.704;9.122;2022-12-29T18:10:10;12.40;80.60
1091;DHT22;534;48.704;9.122;2022-12-29T18:12:39;12.40;80.60
1091;DHT22;534;48.704;9.122;2022-12-29T18:15:06;12.40;80.50
1091;DHT22;534;48.704;9.122;2022-12-29T18:17:38;12.50;80.60
1091;DHT22;534;48.704;9.122;2022-12-29T18:20:05;12.50;80.60
1091;DHT22;534;48.704;9.122;2022-12-29T18:22:32;12.50;80.70
1091;DHT22;534;48.704;9.122;2022-12-29T18:24:59;12.40;80.80
1091;DHT22;534;48.704;9.122;2022-12-29T18:27:27;12.50;81.00
1091;DHT22;534;48.704;9.122;2022-12-29T18:29:54;12.40;81.30
1091;DHT22;534;48.704;9.122;2022-12-29T18:32:21;12.30;82.30
1091;DHT22;534;48.704;9.122;2022-12-29T18:34:47;12.20;82.70
1091;DHT22;534;48.704;9.122;2022-12-29T18:37:14;12.20;83.00
1091;DHT22;534;48.704;9.122;2022-12-29T18:39:41;12.10;83.30
1091;DHT22;534;48.704;9.122;2022-12-29T18:42:15;12.20;83.50
1091;DHT22;534;48.704;9.122;2022-12-29T18:44:44;12.10;83.60
1091;DHT22;534;48.704;9.122;2022-12-29T18:47:11;12.00;83.90
1091;DHT22;534;48.704;9.122;2022-12-29T18:49:37;11.90;83.70
1091;DHT22;534;48.704;9.122;2022-12-29T18:52:04;11.90;83.70
1091;DHT22;534;48.704;9.122;2022-12-29T18:54:32;11.80;83.40
1091;DHT22;534;48.704;9.122;2022-12-29T18:56:59;11.60;83.80
1091;DHT22;534;48.704;9.122;2022-12-29T18:59:25;11.50;84.00
1091;DHT22;534;48.704;9.122;2022-12-29T19:01:53;11.50;84.00
1091;DHT22;534;48.704;9.122;2022-12-29T19:04:20;11.50;84.00
1091;DHT22;534;48.704;9.122;2022-12-29T19:06:47;11.60;83.90
1091;DHT22;534;48.704;9.122;2022-12-29T19:09:14;11.40;83.90
1091;DHT22;534;48.704;9.122;2022-12-29T19:11:41;11.30;84.30
1091;DHT22;534;48.704;9.122;2022-12-29T19:14:13;11.20;84.90
1091;DHT22;534;48.704;9.122;2022-12-29T19:16:40;11.30;84.70
1091;DHT22;534;48.704;9.122;2022-12-29T19:19:13;11.30;84.50
1091;DHT22;534;48.704;9.122;2022-12-29T19:21:40;11.20;84.70
1091;DHT22;534;48.704;9.122;2022-12-29T19:24:07;11.30;84.70
1091;DHT22;534;48.704;9.122;2022-12-29T19:26:35;11.30;84.60
1091;DHT22;534;48.704;9.122;2022-12-29T19:29:03;11.40;84.50
1091;DHT22;534;48.704;9.122;2022-12-29T19:31:30;11.40;84.40
1091;DHT22;534;48.704;9.122;2022-12-29T19:33:57;11.40;84.30
1091;DHT22;534;48.704;9.122;2022-12-29T19:36:25;11.40;84.10
1091;DHT22;534;48.704;9.122;2022-12-29T19:38:53;11.40;84.40
1091;DHT22;534;48.704;9.122;2022-12-29T19:41:20;11.40;83.90
1091;DHT22;534;48.704;9.122;2022-12-29T19:43:46;11.40;84.10
1091;DHT22;534;48.704;9.122;2022-12-29T19:46:19;11.30;84.00
1091;DHT22;534;48.704;9.122;2022-12-29T19:48:46;11.20;84.50
1091;DHT22;534;48.704;9.122;2022-12-29T19:51:14;11.10;84.20
1091;DHT22;534;48.704;9.122;2022-12-29T19:53:44;11.10;84.50
1091;DHT22;534;48.704;9.122;2022-12-29T19:56:11;11.10;84.30
1091;DHT22;534;48.704;9.122;2022-12-29T19:58:38;11.10;84.40
1091;DHT22;534;48.704;9.122;2022-12-29T20:01:08;11.10;84.40
1091;DHT22;534;48.704;9.122;2022-12-29T20:03:35;11.00;84.30
1091;DHT22;534;48.704;9.122;2022-12-29T20:06:03;11.00;84.70
1091;DHT22;534;48.704;9.122;2022-12-29T20:08:30;10.90;84.60
1091;DHT22;534;48.704;9.122;2022-12-29T20:11:02;10.80;84.90
1091;DHT22;534;48.704;9.122;2022-12-29T20:13:30;10.70;85.30
1091;DHT22;534;48.704;9.122;2022-12-29T20:15:58;10.80;85.50
1091;DHT22;534;48.704;9.122;2022-12-29T20:18:26;10.70;85.60
1091;DHT22;534;48.704;9.122;2022-12-29T20:20:53;10.60;85.40
1091;DHT22;534;48.704;9.122;2022-12-29T20:23:20;10.60;85.60
1091;DHT22;534;48.704;9.122;2022-12-29T20:25:53;10.40;85.70
1091;DHT22;534;48.704;9.122;2022-12-29T20:28:21;10.60;86.00
1091;DHT22;534;48.704;9.122;2022-12-29T20:30:56;10.50;85.80
1091;DHT22;534;48.704;9.122;2022-12-29T20:33:23;10.60;86.20
1091;DHT22;534;48.704;9.122;2022-12-29T20:35:50;10.70;85.80
1091;DHT22;534;48.704;9.122;2022-12-29T20:38:17;10.60;85.70
1091;DHT22;534;48.704;9.122;2022-12-29T20:40:44;10.50;84.80
1091;DHT22;534;48.704;9.122;2022-12-29T20:43:12;10.30;85.40
1091;DHT22;534;48.704;9.122;2022-12-29T20:45:40;10.20;86.00
1091;DHT22;534;48.704;9.122;2022-12-29T20:48:07;10.10;85.70
1091;DHT22;534;48.704;9.122;2022-12-29T20:50:34;10.10;85.80